sensor_id;sensor_type;location;lat;lon;timestamp;temperature;humidity
65826;DHT22;52586;-43.152;172.732;2023-01-09T00:57:12;24.00;49.10
65826;DHT22;52586;-43.152;172.732;2023-01-09T00:59:57;24.00;49.20
65826;DHT22;52586;-43.152;172.732;2023-01-09T01:02:40;24.00;49.10
65826;DHT22;52586;-43.152;172.732;2023-01-09T01:05:17;24.00;49.10
65826;DHT22;52586;-43.152;172.732;2023-01-09T01:08:10;24.00;49.00
65826;DHT22;52586;-43.152;172.732;2023-01-09T01:10:45;24.00;49.00
65826;DHT22;52586;-43.152;172.732;2023-01-09T01:13:26;24.10;49.10
65826;DHT22;52586;-43.152;172.732;2023-01-09T01:16:03;24.10;49.00
65826;DHT22;52586;-43.152;172.732;2023-01-09T01:18:36;24.10;49.00
65826;DHT22;52586;-43.152;172.732;2023-01-09T01:21:12;24.10;49.00
65826;DHT22;52586;-43.152;172.732;2023-01-09T01:23:47;24.10;49.00
65826;DHT22;52586;-43.152;172.732;2023-01-09T01:26:23;24.20;48.90
65826;DHT22;52586;-43.152;172.732;2023-01-09T01:29:02;24.20;48.90
65826;DHT22;52586;-43.152;172.732;2023-01-09T01:31:37;24.20;48.90
65826;DHT22;52586;-43.152;172.732;2023-01-09T01:34:11;24.20;48.90
65826;DHT22;52586;-43.152;172.732;2023-01-09T01:36:48;24.20;48.90
65826;DHT22;52586;-43.152;172.732;2023-01-09T01:39:23;24.20;48.90
65826;DHT22;52586;-43.152;172.732;2023-01-09T01:41:57;24.20;48.90
65826;DHT22;52586;-43.152;172.732;2023-01-09T01:44:59;24.20;48.90
65826;DHT22;52586;-43.152;172.732;2023-01-09T01:47:46;24.20;48.90
65826;DHT22;52586;-43.152;172.732;2023-01-09T01:53:07;24.30;48.80
65826;DHT22;52586;-43.152;172.732;2023-01-09T01:55:43;24.30;48.80
65826;DHT22;52586;-43.152;172.732;2023-01-09T01:58:15;24.30;48.80
65826;DHT22;52586;-43.152;172.732;2023-01-09T02:00:48;24.30;48.80
65826;DHT22;52586;-43.152;172.732;2023-01-09T02:03:21;24.30;48.70
65826;DHT22;52586;-43.152;172.732;2023-01-09T02:05:52;24.30;48.70
65826;DHT22;52586;-43.152;172.732;2023-01-09T02:08:23;24.30;48.70
65826;DHT22;52586;-43.152;172.732;2023-01-09T02:10:55;24.40;48.70
65826;DHT22;52586;-43.152;172.732;2023-01-09T02:13:27;24.30;48.70
65826;DHT22;52586;-43.152;172.732;2023-01-09T02:16:12;24.40;48.70
65826;DHT22;52586;-43.152;172.732;2023-01-09T02:18:52;24.40;48.80
65826;DHT22;52586;-43.152;172.732;2023-01-09T02:21:34;24.40;48.70
65826;DHT22;52586;-43.152;172.732;2023-01-09T02:24:38;24.40;48.60
65826;DHT22;52586;-43.152;172.732;2023-01-09T02:27:20;24.40;48.70
65826;DHT22;52586;-43.152;172.732;2023-01-09T02:33:07;24.40;48.60
65826;DHT22;52586;-43.152;172.732;2023-01-09T02:35:48;24.50;48.60
65826;DHT22;52586;-43.152;172.732;2023-01-09T02:38:25;24.50;48.60
65826;DHT22;52586;-43.152;172.732;2023-01-09T02:41:03;24.50;48.60
65826;DHT22;52586;-43.152;172.732;2023-01-09T02:43:35;24.50;48.50
65826;DHT22;52586;-43.152;172.732;2023-01-09T02:46:15;24.50;48.60
65826;DHT22;52586;-43.152;172.732;2023-01-09T02:48:51;24.50;48.60
65826;DHT22;52586;-43.152;172.732;2023-01-09T02:51:25;24.50;48.60
65826;DHT22;52586;-43.152;172.732;2023-01-09T02:54:14;24.50;48.60
65826;DHT22;52586;-43.152;172.732;2023-01-09T02:57:22;24.50;48.60
65826;DHT22;52586;-43.152;172.732;2023-01-09T03:00:05;24.50;48.60
65826;DHT22;52586;-43.152;172.732;2023-01-09T03:02:44;24.50;48.60
65826;DHT22;52586;-43.152;172.732;2023-01-09T03:05:22;24.50;48.60
65826;DHT22;52586;-43.152;172.732;2023-01-09T03:07:59;24.60;48.60
65826;DHT22;52586;-43.152;172.732;2023-01-09T03:10:36;24.60;48.60
65826;DHT22;52586;-43.152;172.732;2023-01-09T03:13:10;24.60;48.60
65826;DHT22;52586;-43.152;172.732;2023-01-09T03:15:44;24.60;48.60
65826;DHT22;52586;-43.152;172.732;2023-01-09T03:18:18;24.60;48.50
65826;DHT22;52586;-43.152;172.732;2023-01-09T03:20:53;24.60;48.50
65826;DHT22;52586;-43.152;172.732;2023-01-09T03:23:24;24.60;48.50
65826;DHT22;52586;-43.152;172.732;2023-01-09T03:25:55;24.60;48.50
65826;DHT22;52586;-43.152;172.732;2023-01-09T03:28:27;24.60;48.60
65826;DHT22;52586;-43.152;172.732;2023-01-09T03:30:58;24.60;48.60
65826;DHT22;52586;-43.152;172.732;2023-01-09T03:33:29;24.70;48.60
65826;DHT22;52586;-43.152;172.732;2023-01-09T03:36:01;24.70;48.60
65826;DHT22;52586;-43.152;172.732;2023-01-09T03:38:32;24.70;48.60
65826;DHT22;52586;-43.152;172.732;2023-01-09T03:41:04;24.70;48.60
65826;DHT22;52586;-43.152;172.732;2023-01-09T03:43:35;24.70;48.60
65826;DHT22;52586;-43.152;172.732;2023-01-09T03:46:06;24.70;48.60
65826;DHT22;52586;-43.152;172.732;2023-01-09T03:48:37;24.80;48.60
65826;DHT22;52586;-43.152;172.732;2023-01-09T03:51:10;24.80;48.60
65826;DHT22;52586;-43.152;172.732;2023-01-09T03:53:40;24.80;48.50
65826;DHT22;52586;-43.152;172.732;2023-01-09T03:56:11;24.80;48.50
65826;DHT22;52586;-43.152;172.732;2023-01-09T03:58:42;24.80;48.50
65826;DHT22;52586;-43.152;172.732;2023-01-09T04:01:12;24.90;48.50
65826;DHT22;52586;-43.152;172.732;2023-01-09T04:03:43;24.90;48.50
65826;DHT22;52586;-43.152;172.732;2023-01-09T04:06:15;24.90;48.50
65826;DHT22;52586;-43.152;172.732;2023-01-09T04:08:46;24.90;48.50
65826;DHT22;52586;-43.152;172.732;2023-01-09T04:11:17;25.00;48.50
65826;DHT22;52586;-43.152;172.732;2023-01-09T04:13:49;25.00;48.50
65826;DHT22;52586;-43.152;172.732;2023-01-09T04:16:19;25.00;48.40
65826;DHT22;52586;-43.152;172.732;2023-01-09T04:18:50;25.10;48.50
65826;DHT22;52586;-43.152;172.732;2023-01-09T04:21:23;25.10;48.50
65826;DHT22;52586;-43.152;172.732;2023-01-09T04:23:53;25.10;48.50
65826;DHT22;52586;-43.152;172.732;2023-01-09T04:26:24;25.10;48.50
65826;DHT22;52586;-43.152;172.732;2023-01-09T04:28:55;25.10;48.50
65826;DHT22;52586;-43.152;172.732;2023-01-09T04:31:25;25.10;48.40
65826;DHT22;52586;-43.152;172.732;2023-01-09T04:33:56;25.20;48.40
65826;DHT22;52586;-43.152;172.732;2023-01-09T04:36:28;25.20;48.40
65826;DHT22;52586;-43.152;172.732;2023-01-09T04:39:01;25.20;48.40
65826;DHT22;52586;-43.152;172.732;2023-01-09T04:41:31;25.20;48.40
65826;DHT22;52586;-43.152;172.732;2023-01-09T04:44:18;25.20;48.40
65826;DHT22;52586;-43.152;172.732;2023-01-09T04:46:49;25.30;48.40
65826;DHT22;52586;-43.152;172.732;2023-01-09T04:49:20;25.30;48.30
65826;DHT22;52586;-43.152;172.732;2023-01-09T04:51:53;25.30;48.30
65826;DHT22;52586;-43.152;172.732;2023-01-09T04:54:24;25.30;48.30
65826;DHT22;52586;-43.152;172.732;2023-01-09T04:56:55;25.30;48.30
65826;DHT22;52586;-43.152;172.732;2023-01-09T04:59:26;25.30;48.20
65826;DHT22;52586;-43.152;172.732;2023-01-09T05:01:56;25.30;48.20
65826;DHT22;52586;-43.152;172.732;2023-01-09T05:04:27;25.30;48.20
65826;DHT22;52586;-43.152;172.732;2023-01-09T05:07:00;25.40;48.20
65826;DHT22;52586;-43.152;172.732;2023-01-09T05:09:30;25.40;48.10
65826;DHT22;52586;-43.152;172.732;2023-01-09T05:12:01;25.30;48.10
65826;DHT22;52586;-43.152;172.732;2023-01-09T05:14:33;25.40;48.10
65826;DHT22;52586;-43.152;172.732;2023-01-09T05:17:10;25.30;48.00
65826;DHT22;52586;-43.152;172.732;2023-01-09T05:19:43;25.40;48.00
65826;DHT22;52586;-43.152;172.732;2023-01-09T05:22:19;25.40;48.00
65826;DHT22;52586;-43.152;172.732;2023-01-09T05:24:53;25.40;48.00
65826;DHT22;52586;-43.152;172.732;2023-01-09T05:27:26;25.40;48.00
65826;DHT22;52586;-43.152;172.732;2023-01-09T05:29:57;25.40;48.00
65826;DHT22;52586;-43.152;172.732;2023-01-09T05:32:28;25.40;48.00
65826;DHT22;52586;-43.152;172.732;2023-01-09T05:34:58;25.40;47.90
65826;DHT22;52586;-43.152;172.732;2023-01-09T05:37:31;25.40;47.90
65826;DHT22;52586;-43.152;172.732;2023-01-09T05:40:02;25.40;47.90
65826;DHT22;52586;-43.152;172.732;2023-01-09T05:42:32;25.50;47.90
65826;DHT22;52586;-43.152;172.732;2023-01-09T05:45:03;25.40;47.90
65826;DHT22;52586;-43.152;172.732;2023-01-09T05:47:34;25.40;47.90
65826;DHT22;52586;-43.152;172.732;2023-01-09T05:50:05;25.50;47.90
65826;DHT22;52586;-43.152;172.732;2023-01-09T05:52:38;25.40;47.80
65826;DHT22;52586;-43.152;172.732;2023-01-09T05:55:11;25.40;47.80
65826;DHT22;52586;-43.152;172.732;2023-01-09T05:57:42;25.40;47.80
65826;DHT22;52586;-43.152;172.732;2023-01-09T06:00:14;25.50;47.80
65826;DHT22;52586;-43.152;172.732;2023-01-09T06:02:44;25.50;47.90
65826;DHT22;52586;-43.152;172.732;2023-01-09T06:05:15;25.50;47.80
65826;DHT22;52586;-43.152;172.732;2023-01-09T06:07:48;25.50;47.90
65826;DHT22;52586;-43.152;172.732;2023-01-09T06:10:19;25.50;47.90
65826;DHT22;52586;-43.152;172.732;2023-01-09T06:12:50;25.50;47.80
65826;DHT22;52586;-43.152;172.732;2023-01-09T06:15:21;25.50;47.90
65826;DHT22;52586;-43.152;172.732;2023-01-09T06:17:52;25.50;47.80
65826;DHT22;52586;-43.152;172.732;2023-01-09T06:20:22;25.50;47.80
65826;DHT22;52586;-43.152;172.732;2023-01-09T06:22:55;25.50;47.80
65826;DHT22;52586;-43.152;172.732;2023-01-09T06:25:26;25.50;47.80
65826;DHT22;52586;-43.152;172.732;2023-01-09T06:27:56;25.50;47.80
65826;DHT22;52586;-43.152;172.732;2023-01-09T06:30:27;25.50;47.80
65826;DHT22;52586;-43.152;172.732;2023-01-09T06:32:58;25.50;47.90
65826;DHT22;52586;-43.152;172.732;2023-01-09T06:35:28;25.50;47.90
65826;DHT22;52586;-43.152;172.732;2023-01-09T06:38:01;25.50;47.90
65826;DHT22;52586;-43.152;172.732;2023-01-09T06:40:32;25.50;47.80
65826;DHT22;52586;-43.152;172.732;2023-01-09T06:43:02;25.50;47.80
65826;DHT22;52586;-43.152;172.732;2023-01-09T06:45:33;25.50;47.80
65826;DHT22;52586;-43.152;172.732;2023-01-09T06:48:04;25.60;47.90
65826;DHT22;52586;-43.152;172.732;2023-01-09T06:50:35;25.60;47.80
65826;DHT22;52586;-43.152;172.732;2023-01-09T06:53:07;25.60;47.80
65826;DHT22;52586;-43.152;172.732;2023-01-09T06:55:38;25.60;47.70
65826;DHT22;52586;-43.152;172.732;2023-01-09T06:58:09;25.60;47.80
65826;DHT22;52586;-43.152;172.732;2023-01-09T07:00:40;25.60;47.70
65826;DHT22;52586;-43.152;172.732;2023-01-09T07:03:11;25.60;47.70
65826;DHT22;52586;-43.152;172.732;2023-01-09T07:05:46;25.60;47.70
65826;DHT22;52586;-43.152;172.732;2023-01-09T07:08:19;25.60;47.80
65826;DHT22;52586;-43.152;172.732;2023-01-09T07:10:50;25.60;48.30
65826;DHT22;52586;-43.152;172.732;2023-01-09T07:13:21;25.60;47.80
65826;DHT22;52586;-43.152;172.732;2023-01-09T07:15:51;25.60;47.70
65826;DHT22;52586;-43.152;172.732;2023-01-09T07:18:22;25.60;47.70
65826;DHT22;52586;-43.152;172.732;2023-01-09T07:20:53;25.60;47.70
65826;DHT22;52586;-43.152;172.732;2023-01-09T07:23:25;25.60;47.70
65826;DHT22;52586;-43.152;172.732;2023-01-09T07:25:56;25.60;47.70
65826;DHT22;52586;-43.152;172.732;2023-01-09T07:28:27;25.60;47.70
65826;DHT22;52586;-43.152;172.732;2023-01-09T07:30:58;25.60;47.60
65826;DHT22;52586;-43.152;172.732;2023-01-09T07:33:31;25.50;47.50
65826;DHT22;52586;-43.152;172.732;2023-01-09T07:36:02;25.50;47.60
65826;DHT22;52586;-43.152;172.732;2023-01-09T07:38:34;25.50;47.60
65826;DHT22;52586;-43.152;172.732;2023-01-09T07:41:05;25.50;47.60
65826;DHT22;52586;-43.152;172.732;2023-01-09T07:43:36;25.50;47.60
65826;DHT22;52586;-43.152;172.732;2023-01-09T07:46:07;25.50;47.60
65826;DHT22;52586;-43.152;172.732;2023-01-09T07:48:37;25.40;47.60
65826;DHT22;52586;-43.152;172.732;2023-01-09T07:51:08;25.40;47.60
65826;DHT22;52586;-43.152;172.732;2023-01-09T07:53:41;25.40;47.60
65826;DHT22;52586;-43.152;172.732;2023-01-09T07:56:12;25.40;47.60
65826;DHT22;52586;-43.152;172.732;2023-01-09T07:58:42;25.40;47.60
65826;DHT22;52586;-43.152;172.732;2023-01-09T08:01:14;25.30;47.40
65826;DHT22;52586;-43.152;172.732;2023-01-09T08:03:44;25.30;47.00
65826;DHT22;52586;-43.152;172.732;2023-01-09T08:06:15;25.20;46.80
65826;DHT22;52586;-43.152;172.732;2023-01-09T08:08:48;25.00;46.80
65826;DHT22;52586;-43.152;172.732;2023-01-09T08:11:19;24.80;46.90
65826;DHT22;52586;-43.152;172.732;2023-01-09T08:13:50;24.60;47.10
65826;DHT22;52586;-43.152;172.732;2023-01-09T08:16:20;24.40;47.40
65826;DHT22;52586;-43.152;172.732;2023-01-09T08:18:51;24.20;47.70
65826;DHT22;52586;-43.152;172.732;2023-01-09T08:21:22;24.00;48.00
65826;DHT22;52586;-43.152;172.732;2023-01-09T08:23:54;23.90;48.30
65826;DHT22;52586;-43.152;172.732;2023-01-09T08:26:25;23.70;48.60
65826;DHT22;52586;-43.152;172.732;2023-01-09T08:28:56;23.50;48.90
65826;DHT22;52586;-43.152;172.732;2023-01-09T08:31:27;23.30;49.20
65826;DHT22;52586;-43.152;172.732;2023-01-09T08:33:57;23.20;49.50
65826;DHT22;52586;-43.152;172.732;2023-01-09T08:36:28;23.00;49.50
65826;DHT22;52586;-43.152;172.732;2023-01-09T08:39:01;22.90;49.60
65826;DHT22;52586;-43.152;172.732;2023-01-09T08:41:31;22.90;49.70
65826;DHT22;52586;-43.152;172.732;2023-01-09T08:44:18;22.90;49.70
65826;DHT22;52586;-43.152;172.732;2023-01-09T08:47:05;22.90;49.70
65826;DHT22;52586;-43.152;172.732;2023-01-09T08:49:37;22.90;49.70
65826;DHT22;52586;-43.152;172.732;2023-01-09T08:52:07;22.90;49.80
65826;DHT22;52586;-43.152;172.732;2023-01-09T08:54:40;22.90;49.90
65826;DHT22;52586;-43.152;172.732;2023-01-09T08:57:11;23.00;49.90
65826;DHT22;52586;-43.152;172.732;2023-01-09T08:59:45;23.00;49.90
65826;DHT22;52586;-43.152;172.732;2023-01-09T09:02:15;23.00;49.90
65826;DHT22;52586;-43.152;172.732;2023-01-09T09:04:46;23.00;49.90
65826;DHT22;52586;-43.152;172.732;2023-01-09T09:07:19;23.10;49.80
65826;DHT22;52586;-43.152;172.732;2023-01-09T09:09:55;23.10;49.80
65826;DHT22;52586;-43.152;172.732;2023-01-09T09:12:26;23.10;49.80
65826;DHT22;52586;-43.152;172.732;2023-01-09T09:14:56;23.20;49.70
65826;DHT22;52586;-43.152;172.732;2023-01-09T09:17:43;23.20;49.70
65826;DHT22;52586;-43.152;172.732;2023-01-09T09:20:14;23.20;49.70
65826;DHT22;52586;-43.152;172.732;2023-01-09T09:22:46;23.20;49.60
65826;DHT22;52586;-43.152;172.732;2023-01-09T09:25:19;23.20;49.50
65826;DHT22;52586;-43.152;172.732;2023-01-09T09:27:50;23.20;49.50
65826;DHT22;52586;-43.152;172.732;2023-01-09T09:30:23;23.20;49.50
65826;DHT22;52586;-43.152;172.732;2023-01-09T09:32:54;23.20;49.40
65826;DHT22;52586;-43.152;172.732;2023-01-09T09:35:25;23.20;49.40
65826;DHT22;52586;-43.152;172.732;2023-01-09T09:37:56;23.20;49.40
65826;DHT22;52586;-43.152;172.732;2023-01-09T09:40:57;23.20;49.40
65826;DHT22;52586;-43.152;172.732;2023-01-09T09:43:52;23.20;49.30
65826;DHT22;52586;-43.152;172.732;2023-01-09T09:46:43;23.30;49.40
65826;DHT22;52586;-43.152;172.732;2023-01-09T09:49:20;23.30;49.40
65826;DHT22;52586;-43.152;172.732;2023-01-09T09:52:04;23.30;49.50
65826;DHT22;52586;-43.152;172.732;2023-01-09T09:54:41;23.20;49.70
65826;DHT22;52586;-43.152;172.732;2023-01-09T09:57:17;23.30;50.00
65826;DHT22;52586;-43.152;172.732;2023-01-09T09:59:50;23.30;50.10
65826;DHT22;52586;-43.152;172.732;2023-01-09T10:02:25;23.30;50.00
65826;DHT22;52586;-43.152;172.732;2023-01-09T10:05:00;23.30;50.00
65826;DHT22;52586;-43.152;172.732;2023-01-09T10:07:38;23.30;49.90
65826;DHT22;52586;-43.152;172.732;2023-01-09T10:10:18;23.30;49.80
65826;DHT22;52586;-43.152;172.732;2023-01-09T10:12:54;23.30;49.80
65826;DHT22;52586;-43.152;172.732;2023-01-09T10:15:32;23.30;49.70
65826;DHT22;52586;-43.152;172.732;2023-01-09T10:18:16;23.30;49.70
65826;DHT22;52586;-43.152;172.732;2023-01-09T10:20:54;23.30;49.70
65826;DHT22;52586;-43.152;172.732;2023-01-09T10:26:34;23.30;49.60
65826;DHT22;52586;-43.152;172.732;2023-01-09T10:29:31;23.30;49.60
65826;DHT22;52586;-43.152;172.732;2023-01-09T10:32:22;23.20;49.50
65826;DHT22;52586;-43.152;172.732;2023-01-09T10:35:09;23.20;49.50
65826;DHT22;52586;-43.152;172.732;2023-01-09T10:37:45;23.20;49.50
65826;DHT22;52586;-43.152;172.732;2023-01-09T10:40:23;23.20;49.50
65826;DHT22;52586;-43.152;172.732;2023-01-09T10:42:59;23.20;49.50
65826;DHT22;52586;-43.152;172.732;2023-01-09T10:45:35;23.20;49.50
65826;DHT22;52586;-43.152;172.732;2023-01-09T10:48:20;23.20;49.50
65826;DHT22;52586;-43.152;172.732;2023-01-09T10:50:55;23.20;49.50
65826;DHT22;52586;-43.152;172.732;2023-01-09T10:53:29;23.20;49.40
65826;DHT22;52586;-43.152;172.732;2023-01-09T10:56:04;23.20;49.40
65826;DHT22;52586;-43.152;172.732;2023-01-09T10:58:38;23.20;49.40
65826;DHT22;52586;-43.152;172.732;2023-01-09T11:01:10;23.10;49.40
65826;DHT22;52586;-43.152;172.732;2023-01-09T11:03:41;23.10;49.40
65826;DHT22;52586;-43.152;172.732;2023-01-09T11:06:19;23.10;50.00
65826;DHT22;52586;-43.152;172.732;2023-01-09T11:08:54;23.10;49.40
65826;DHT22;52586;-43.152;172.732;2023-01-09T11:11:35;23.10;49.30
65826;DHT22;52586;-43.152;172.732;2023-01-09T11:14:14;23.10;49.30
65826;DHT22;52586;-43.152;172.732;2023-01-09T11:16:54;23.10;49.30
65826;DHT22;52586;-43.152;172.732;2023-01-09T11:19:25;23.10;49.30
65826;DHT22;52586;-43.152;172.732;2023-01-09T11:22:07;23.10;49.20
65826;DHT22;52586;-43.152;172.732;2023-01-09T11:24:38;23.00;49.20
65826;DHT22;52586;-43.152;172.732;2023-01-09T11:27:19;23.00;49.20
65826;DHT22;52586;-43.152;172.732;2023-01-09T11:30:22;23.00;49.20
65826;DHT22;52586;-43.152;172.732;2023-01-09T11:32:57;23.00;49.20
65826;DHT22;52586;-43.152;172.732;2023-01-09T11:35:29;23.00;49.10
65826;DHT22;52586;-43.152;172.732;2023-01-09T11:38:06;23.00;49.10
65826;DHT22;52586;-43.152;172.732;2023-01-09T11:40:45;23.00;49.20
65826;DHT22;52586;-43.152;172.732;2023-01-09T11:43:20;23.00;49.10
65826;DHT22;52586;-43.152;172.732;2023-01-09T11:45:53;23.00;49.20
65826;DHT22;52586;-43.152;172.732;2023-01-09T11:48:40;23.00;49.20
65826;DHT22;52586;-43.152;172.732;2023-01-09T11:51:24;23.00;49.20
65826;DHT22;52586;-43.152;172.732;2023-01-09T11:54:04;23.00;49.20
65826;DHT22;52586;-43.152;172.732;2023-01-09T11:56:37;23.00;49.20
65826;DHT22;52586;-43.152;172.732;2023-01-09T11:59:14;23.00;49.20
65826;DHT22;52586;-43.152;172.732;2023-01-09T12:04:55;22.90;49.10
65826;DHT22;52586;-43.152;172.732;2023-01-09T12:07:58;22.90;49.10
65826;DHT22;52586;-43.152;172.732;2023-01-09T12:13:37;22.90;49.10
65826;DHT22;52586;-43.152;172.732;2023-01-09T12:16:17;22.90;49.10
65826;DHT22;52586;-43.152;172.732;2023-01-09T12:19:06;22.90;49.10
65826;DHT22;52586;-43.152;172.732;2023-01-09T12:21:47;22.90;49.10
65826;DHT22;52586;-43.152;172.732;2023-01-09T12:24:47;22.90;49.00
65826;DHT22;52586;-43.152;172.732;2023-01-09T12:27:27;22.90;49.00
65826;DHT22;52586;-43.152;172.732;2023-01-09T12:30:19;22.90;49.00
65826;DHT22;52586;-43.152;172.732;2023-01-09T12:33:07;22.80;48.90
65826;DHT22;52586;-43.152;172.732;2023-01-09T12:35:41;22.80;48.90
65826;DHT22;52586;-43.152;172.732;2023-01-09T12:38:28;22.80;48.90
65826;DHT22;52586;-43.152;172.732;2023-01-09T12:53:26;22.80;49.00
65826;DHT22;52586;-43.152;172.732;2023-01-09T12:56:02;22.80;49.50
65826;DHT22;52586;-43.152;172.732;2023-01-09T12:58:40;22.70;48.90
65826;DHT22;52586;-43.152;172.732;2023-01-09T13:01:16;22.70;48.90
65826;DHT22;52586;-43.152;172.732;2023-01-09T13:04:00;22.70;48.90
65826;DHT22;52586;-43.152;172.732;2023-01-09T13:06:34;22.70;48.90
65826;DHT22;52586;-43.152;172.732;2023-01-09T13:09:20;22.70;48.90
65826;DHT22;52586;-43.152;172.732;2023-01-09T13:12:01;22.70;48.90
65826;DHT22;52586;-43.152;172.732;2023-01-09T13:14:44;22.70;48.90
65826;DHT22;52586;-43.152;172.732;2023-01-09T13:17:20;22.60;48.80
65826;DHT22;52586;-43.152;172.732;2023-01-09T13:19:52;22.60;48.80
65826;DHT22;52586;-43.152;172.732;2023-01-09T13:22:25;22.60;48.80
65826;DHT22;52586;-43.152;172.732;2023-01-09T13:25:15;22.70;48.90
65826;DHT22;52586;-43.152;172.732;2023-01-09T13:27:53;22.60;48.90
65826;DHT22;52586;-43.152;172.732;2023-01-09T13:30:42;22.60;48.90
65826;DHT22;52586;-43.152;172.732;2023-01-09T13:33:18;22.70;48.90
65826;DHT22;52586;-43.152;172.732;2023-01-09T13:35:52;22.60;48.80
65826;DHT22;52586;-43.152;172.732;2023-01-09T13:38:24;22.60;48.80
65826;DHT22;52586;-43.152;172.732;2023-01-09T13:41:11;22.60;48.90
65826;DHT22;52586;-43.152;172.732;2023-01-09T13:44:00;22.60;48.90
65826;DHT22;52586;-43.152;172.732;2023-01-09T13:46:36;22.50;48.80
65826;DHT22;52586;-43.152;172.732;2023-01-09T13:49:32;22.50;48.80
65826;DHT22;52586;-43.152;172.732;2023-01-09T13:52:30;22.50;48.80
65826;DHT22;52586;-43.152;172.732;2023-01-09T13:55:21;22.50;48.80
65826;DHT22;52586;-43.152;172.732;2023-01-09T14:01:01;22.50;48.80
65826;DHT22;52586;-43.152;172.732;2023-01-09T14:03:35;22.50;48.80
65826;DHT22;52586;-43.152;172.732;2023-01-09T14:06:18;22.50;48.80
65826;DHT22;52586;-43.152;172.732;2023-01-09T14:09:10;22.50;48.80
65826;DHT22;52586;-43.152;172.732;2023-01-09T14:11:46;22.50;48.80
65826;DHT22;52586;-43.152;172.732;2023-01-09T14:14:26;22.50;48.80
65826;DHT22;52586;-43.152;172.732;2023-01-09T14:16:59;22.50;48.90
65826;DHT22;52586;-43.152;172.732;2023-01-09T14:19:35;22.40;48.80
65826;DHT22;52586;-43.152;172.732;2023-01-09T14:22:17;22.50;48.90
65826;DHT22;52586;-43.152;172.732;2023-01-09T14:24:53;22.40;48.80
65826;DHT22;52586;-43.152;172.732;2023-01-09T14:27:49;22.40;48.80
65826;DHT22;52586;-43.152;172.732;2023-01-09T14:30:32;22.40;48.80
65826;DHT22;52586;-43.152;172.732;2023-01-09T14:35:53;22.40;48.80
65826;DHT22;52586;-43.152;172.732;2023-01-09T14:38:30;22.40;48.80
65826;DHT22;52586;-43.152;172.732;2023-01-09T14:41:04;22.40;48.80
65826;DHT22;52586;-43.152;172.732;2023-01-09T14:43:46;22.40;48.80
65826;DHT22;52586;-43.152;172.732;2023-01-09T14:46:19;22.30;48.80
65826;DHT22;52586;-43.152;172.732;2023-01-09T14:49:04;22.30;48.80
65826;DHT22;52586;-43.152;172.732;2023-01-09T14:51:37;22.40;48.90
65826;DHT22;52586;-43.152;172.732;2023-01-09T14:54:20;22.30;48.90
65826;DHT22;52586;-43.152;172.732;2023-01-09T14:56:54;22.30;48.80
65826;DHT22;52586;-43.152;172.732;2023-01-09T14:59:25;22.30;48.90
65826;DHT22;52586;-43.152;172.732;2023-01-09T15:01:56;22.30;48.80
65826;DHT22;52586;-43.152;172.732;2023-01-09T15:04:31;22.30;48.90
65826;DHT22;52586;-43.152;172.732;2023-01-09T15:07:04;22.30;48.80
65826;DHT22;52586;-43.152;172.732;2023-01-09T15:09:41;22.20;48.80
65826;DHT22;52586;-43.152;172.732;2023-01-09T15:12:17;22.30;48.80
65826;DHT22;52586;-43.152;172.732;2023-01-09T15:14:52;22.20;48.80
65826;DHT22;52586;-43.152;172.732;2023-01-09T15:17:25;22.20;48.80
65826;DHT22;52586;-43.152;172.732;2023-01-09T15:20:00;22.20;48.80
65826;DHT22;52586;-43.152;172.732;2023-01-09T15:22:33;22.20;48.80
65826;DHT22;52586;-43.152;172.732;2023-01-09T15:25:23;22.20;48.80
65826;DHT22;52586;-43.152;172.732;2023-01-09T15:27:55;22.20;48.80
65826;DHT22;52586;-43.152;172.732;2023-01-09T15:30:28;22.20;48.80
65826;DHT22;52586;-43.152;172.732;2023-01-09T15:33:03;22.20;48.80
65826;DHT22;52586;-43.152;172.732;2023-01-09T15:35:40;22.20;48.80
65826;DHT22;52586;-43.152;172.732;2023-01-09T15:38:15;22.10;48.80
65826;DHT22;52586;-43.152;172.732;2023-01-09T15:40:53;22.10;48.80
65826;DHT22;52586;-43.152;172.732;2023-01-09T15:43:25;22.10;48.80
65826;DHT22;52586;-43.152;172.732;2023-01-09T15:45:57;22.10;48.80
65826;DHT22;52586;-43.152;172.732;2023-01-09T15:48:29;22.10;48.80
65826;DHT22;52586;-43.152;172.732;2023-01-09T15:51:06;22.10;48.80
65826;DHT22;52586;-43.152;172.732;2023-01-09T15:53:40;22.10;48.80
65826;DHT22;52586;-43.152;172.732;2023-01-09T15:56:16;22.00;48.70
65826;DHT22;52586;-43.152;172.732;2023-01-09T15:58:47;22.10;48.80
65826;DHT22;52586;-43.152;172.732;2023-01-09T16:01:33;22.10;48.80
65826;DHT22;52586;-43.152;172.732;2023-01-09T16:04:08;22.00;48.70
65826;DHT22;52586;-43.152;172.732;2023-01-09T16:06:45;22.00;48.70
65826;DHT22;52586;-43.152;172.732;2023-01-09T16:09:18;22.00;48.70
65826;DHT22;52586;-43.152;172.732;2023-01-09T16:11:51;22.00;48.70
65826;DHT22;52586;-43.152;172.732;2023-01-09T16:14:25;22.00;48.70
65826;DHT22;52586;-43.152;172.732;2023-01-09T16:17:00;21.90;48.70
65826;DHT22;52586;-43.152;172.732;2023-01-09T16:19:44;22.00;48.80
65826;DHT22;52586;-43.152;172.732;2023-01-09T16:22:22;21.90;48.80
65826;DHT22;52586;-43.152;172.732;2023-01-09T16:24:54;21.90;48.70
65826;DHT22;52586;-43.152;172.732;2023-01-09T16:27:26;21.90;48.80
65826;DHT22;52586;-43.152;172.732;2023-01-09T16:29:58;21.90;48.80
65826;DHT22;52586;-43.152;172.732;2023-01-09T16:32:30;21.90;48.80
65826;DHT22;52586;-43.152;172.732;2023-01-09T16:35:02;21.80;48.70
65826;DHT22;52586;-43.152;172.732;2023-01-09T16:37:35;21.80;48.70
65826;DHT22;52586;-43.152;172.732;2023-01-09T16:40:26;21.80;48.80
65826;DHT22;52586;-43.152;172.732;2023-01-09T16:42:59;21.80;48.70
65826;DHT22;52586;-43.152;172.732;2023-01-09T16:45:30;21.80;48.70
65826;DHT22;52586;-43.152;172.732;2023-01-09T16:48:01;21.80;48.80
65826;DHT22;52586;-43.152;172.732;2023-01-09T16:50:32;21.80;48.80
65826;DHT22;52586;-43.152;172.732;2023-01-09T16:53:12;21.80;48.80
65826;DHT22;52586;-43.152;172.732;2023-01-09T16:55:44;21.80;48.90
65826;DHT22;52586;-43.152;172.732;2023-01-09T16:58:17;21.70;48.80
65826;DHT22;52586;-43.152;172.732;2023-01-09T17:00:48;21.70;48.80
65826;DHT22;52586;-43.152;172.732;2023-01-09T17:03:19;21.70;48.80
65826;DHT22;52586;-43.152;172.732;2023-01-09T17:05:51;21.70;48.80
65826;DHT22;52586;-43.152;172.732;2023-01-09T17:08:26;21.70;48.90